createdAt,value
2022-10-23T00:01:45.651Z,99958.91
2022-10-23T00:04:21.366Z,99955.05
2022-10-23T00:06:55.807Z,99949.11
2022-10-23T00:09:30.821Z,99950.32
2022-10-23T00:12:05.097Z,99948.77
2022-10-23T00:14:37.857Z,99946.47
2022-10-23T00:17:12.854Z,99943.55
2022-10-23T00:19:46.624Z,99940.48
2022-10-23T00:22:19.348Z,99943.55
2022-10-23T00:24:54.144Z,99943.89
2022-10-23T00:27:31.938Z,99943.41
2022-10-23T00:30:17.144Z,99945.25
2022-10-23T00:32:50.949Z,99939.76
2022-10-23T00:35:25.169Z,99938.33
2022-10-23T00:37:57.959Z,99944.77
2022-10-23T00:40:30.571Z,99936.63
2022-10-23T00:43:04.422Z,99941.19
2022-10-23T00:45:37.573Z,99939.62
2022-10-23T00:48:12.301Z,99929.54
2022-10-23T00:50:45.650Z,99931.03
2022-10-23T00:53:20.462Z,99928.47
2022-10-23T00:55:59.415Z,99925.20
2022-10-23T00:58:35.157Z,99923.59
2022-10-23T01:01:23.093Z,99919.80
2022-10-23T01:03:57.771Z,99919.11
2022-10-23T01:06:53.287Z,99918.31
2022-10-23T01:09:50.206Z,99922.78
2022-10-23T01:12:41.803Z,99913.92
2022-10-23T01:15:24.777Z,99910.00
2022-10-23T01:18:20.521Z,99910.17
2022-10-23T01:21:08.698Z,99903.81
2022-10-23T01:23:52.706Z,99905.64
2022-10-23T01:26:40.709Z,99893.20
2022-10-23T01:29:59.661Z,99891.27
2022-10-23T01:33:01.321Z,99885.63
2022-10-23T01:35:39.226Z,99889.10
2022-10-23T01:38:27.413Z,99887.05
2022-10-23T01:41:12.124Z,99890.38
2022-10-23T01:43:51.509Z,99877.84
2022-10-23T01:46:26.191Z,99875.27
2022-10-23T01:48:59.831Z,99879.82
2022-10-23T01:51:33.452Z,99879.47
2022-10-23T01:54:10.230Z,99875.05
2022-10-23T01:56:47.257Z,99875.05
2022-10-23T01:59:28.023Z,99870.75
2022-10-23T02:02:02.067Z,99870.67
2022-10-23T02:04:45.423Z,99873.52
2022-10-23T02:07:31.323Z,99877.93
2022-10-23T02:10:07.602Z,99876.22
2022-10-23T02:12:57.953Z,99876.22
2022-10-23T02:15:48.496Z,99873.79
2022-10-23T02:18:41.208Z,99879.48
2022-10-23T02:21:55.448Z,99880.13
2022-10-23T02:24:48.177Z,99871.14
2022-10-23T02:27:29.967Z,99876.28
2022-10-23T02:30:15.469Z,99877.98
2022-10-23T02:32:54.628Z,99875.80
2022-10-23T02:35:27.643Z,99875.42
2022-10-23T02:38:02.905Z,99878.99
2022-10-23T02:40:42.093Z,99881.70
2022-10-23T02:43:22.498Z,99871.87
2022-10-23T02:46:03.631Z,99867.67
2022-10-23T02:48:56.239Z,99868.89
2022-10-23T02:51:42.449Z,99870.08
2022-10-23T02:54:40.989Z,99865.17
2022-10-23T02:57:38.066Z,99869.45
2022-10-23T03:00:19.717Z,99867.83
2022-10-23T03:03:01.396Z,99872.10
2022-10-23T03:05:41.296Z,99871.41
2022-10-23T03:08:16.308Z,99873.25
2022-10-23T03:10:49.520Z,99870.67
2022-10-23T03:13:23.629Z,99873.52
2022-10-23T03:16:19.798Z,99871.54
2022-10-23T03:18:54.117Z,99868.56
2022-10-23T03:21:29.078Z,99873.19
2022-10-23T03:24:05.283Z,99866.14
2022-10-23T03:26:39.554Z,99867.08
2022-10-23T03:29:13.023Z,99858.81
2022-10-23T03:31:48.662Z,99859.16
2022-10-23T03:34:21.937Z,99855.09
2022-10-23T03:36:56.981Z,99860.03
2022-10-23T03:39:29.762Z,99861.73
2022-10-23T03:42:04.119Z,99863.61
2022-10-23T03:44:39.724Z,99860.52
2022-10-23T03:47:13.679Z,99858.19
2022-10-23T03:49:46.727Z,99861.73
2022-10-23T03:52:19.581Z,99864.23
2022-10-23T03:54:57.262Z,99856.97
2022-10-23T03:57:30.056Z,99857.32
2022-10-23T04:00:03.716Z,99850.27
2022-10-23T04:02:39.242Z,99849.86
2022-10-23T04:05:15.747Z,99843.67
2022-10-23T04:07:51.097Z,99848.33
2022-10-23T04:10:26.139Z,99841.41
2022-10-23T04:13:00.659Z,99840.41
2022-10-23T04:15:40.334Z,99839.40
2022-10-23T04:18:16.577Z,99838.28
2022-10-23T04:20:50.925Z,99841.69
2022-10-23T04:23:25.192Z,99832.45
2022-10-23T04:25:59.879Z,99839.92
2022-10-23T04:28:33.170Z,99835.36
2022-10-23T04:31:07.757Z,99836.92
2022-10-23T04:33:40.668Z,99837.66
2022-10-23T04:36:13.683Z,99835.78
2022-10-23T04:38:46.375Z,99834.80
2022-10-23T04:41:20.461Z,99839.56
2022-10-23T04:43:53.801Z,99836.71
2022-10-23T04:46:26.569Z,99837.44
2022-10-23T04:49:00.882Z,99838.66
2022-10-23T04:51:54.346Z,99830.00
2022-10-23T04:54:46.941Z,99832.70
2022-10-23T04:57:31.083Z,99836.15
2022-10-23T05:00:09.094Z,99833.44
2022-10-23T05:03:01.227Z,99838.86
2022-10-23T05:05:36.715Z,99831.59
2022-10-23T05:08:17.905Z,99832.80
2022-10-23T05:10:58.054Z,99839.58
2022-10-23T05:13:32.031Z,99843.27
2022-10-23T05:16:05.730Z,99842.58
2022-10-23T05:18:44.100Z,99847.13
2022-10-23T05:21:26.056Z,99846.58
2022-10-23T05:24:03.323Z,99843.77
2022-10-23T05:26:36.162Z,99849.85
2022-10-23T05:29:10.738Z,99844.57
2022-10-23T05:31:43.463Z,99849.19
2022-10-23T05:34:21.698Z,99856.34
2022-10-23T05:36:57.452Z,99847.84
2022-10-23T05:39:32.056Z,99842.79
2022-10-23T05:42:08.229Z,99841.30
2022-10-23T05:44:42.470Z,99841.36
2022-10-23T05:47:19.462Z,99836.15
2022-10-23T05:49:59.880Z,99845.63
2022-10-23T05:52:49.204Z,99843.65
2022-10-23T05:55:25.520Z,99840.27
2022-10-23T05:58:19.294Z,99841.48
2022-10-23T06:00:56.759Z,99849.86
2022-10-23T06:03:35.831Z,99845.48
2022-10-23T06:06:10.169Z,99844.50
2022-10-23T06:08:49.083Z,99855.06
2022-10-23T06:11:23.606Z,99842.86
2022-10-23T06:14:01.640Z,99852.21
2022-10-23T06:16:35.161Z,99845.78
2022-10-23T06:19:13.492Z,99845.98
2022-10-23T06:21:46.808Z,99838.37
2022-10-23T06:24:20.370Z,99840.77
2022-10-23T06:26:58.464Z,99834.91
2022-10-23T06:29:45.652Z,99843.14
2022-10-23T06:32:22.171Z,99830.27
2022-10-23T06:34:56.515Z,99838.12
2022-10-23T06:37:30.876Z,99837.48
2022-10-23T06:40:11.774Z,99837.84
2022-10-23T06:43:02.707Z,99843.12
2022-10-23T06:45:40.095Z,99843.98
2022-10-23T06:48:19.019Z,99840.89
2022-10-23T06:50:57.644Z,99837.55
2022-10-23T06:53:34.187Z,99842.97
2022-10-23T06:56:10.374Z,99847.10
2022-10-23T06:58:44.974Z,99848.98
2022-10-23T07:01:20.394Z,99846.41
2022-10-23T07:03:54.794Z,99847.05
2022-10-23T07:06:29.580Z,99848.69
2022-10-23T07:09:03.851Z,99846.98
2022-10-23T07:11:50.136Z,99846.84
2022-10-23T07:14:27.196Z,99846.84
2022-10-23T07:17:00.587Z,99847.91
2022-10-23T07:19:34.146Z,99850.83
2022-10-23T07:22:11.957Z,99852.38
2022-10-23T07:24:48.969Z,99850.25
2022-10-23T07:27:25.698Z,99850.66
2022-10-23T07:30:04.006Z,99846.96
2022-10-23T07:32:40.479Z,99840.23
2022-10-23T07:35:33.100Z,99843.72
2022-10-23T07:38:10.295Z,99838.98
2022-10-23T07:40:48.418Z,99838.05
2022-10-23T07:43:22.416Z,99842.52
2022-10-23T07:45:56.334Z,99832.87
2022-10-23T07:48:34.092Z,99833.73
2022-10-23T07:51:10.951Z,99833.11
2022-10-23T07:53:55.014Z,99838.59
2022-10-23T07:56:32.749Z,99833.84
2022-10-23T07:59:27.445Z,99838.63
2022-10-23T08:02:02.011Z,99833.97
2022-10-23T08:04:38.177Z,99840.66
2022-10-23T08:07:23.594Z,99844.93
2022-10-23T08:09:57.251Z,99844.45
2022-10-23T08:12:30.647Z,99839.58
2022-10-23T08:15:05.841Z,99837.55
2022-10-23T08:17:42.077Z,99842.05
2022-10-23T08:20:21.481Z,99847.91
2022-10-23T08:23:01.081Z,99847.16
2022-10-23T08:25:35.803Z,99852.14
2022-10-23T08:28:10.576Z,99850.53
2022-10-23T08:30:45.394Z,99854.50
2022-10-23T08:33:22.948Z,99853.56
2022-10-23T08:36:00.655Z,99859.67
2022-10-23T08:38:37.877Z,99857.41
2022-10-23T08:41:16.186Z,99864.47
2022-10-23T08:44:16.583Z,99863.15
2022-10-23T08:46:53.483Z,99865.27
2022-10-23T08:49:53.628Z,99862.39
2022-10-23T08:52:38.745Z,99863.45
2022-10-23T08:55:17.961Z,99866.85
2022-10-23T09:01:00.639Z,99867.75
2022-10-23T09:03:35.821Z,99869.22
2022-10-23T09:07:01.890Z,99867.65
2022-10-23T09:09:53.968Z,99873.34
2022-10-23T09:12:28.681Z,99877.67
2022-10-23T09:15:28.255Z,99867.84
2022-10-23T09:18:11.005Z,99871.39
2022-10-23T09:20:48.362Z,99871.17
2022-10-23T09:23:23.625Z,99873.56
2022-10-23T09:25:57.805Z,99873.71
2022-10-23T09:28:33.251Z,99882.59
2022-10-23T09:31:13.410Z,99885.49
2022-10-23T09:34:01.019Z,99879.41
2022-10-23T09:36:34.979Z,99879.03
2022-10-23T09:39:12.444Z,99877.98
2022-10-23T09:41:46.263Z,99879.34
2022-10-23T09:44:25.461Z,99873.22
2022-10-23T09:47:12.257Z,99876.28
2022-10-23T09:49:51.688Z,99874.42
2022-10-23T09:52:36.244Z,99871.92
2022-10-23T09:55:24.288Z,99866.50
2022-10-23T09:57:58.954Z,99867.03
2022-10-23T10:00:31.840Z,99871.95
2022-10-23T10:03:07.645Z,99866.91
2022-10-23T10:06:20.197Z,99859.45
2022-10-23T10:08:57.984Z,99863.25
2022-10-23T10:11:51.879Z,99864.81
2022-10-23T10:14:55.327Z,99859.64
2022-10-23T10:17:47.783Z,99866.47
2022-10-23T10:20:42.910Z,99869.38
2022-10-23T10:23:52.000Z,99859.50
2022-10-23T10:26:38.451Z,99861.20
2022-10-23T10:29:39.805Z,99861.02
2022-10-23T10:32:42.976Z,99863.03
2022-10-23T10:35:32.378Z,99857.59
2022-10-23T10:38:43.663Z,99851.47
2022-10-23T10:41:36.237Z,99847.56
2022-10-23T10:44:22.586Z,99848.22
2022-10-23T10:47:03.027Z,99840.42
2022-10-23T10:49:45.761Z,99841.25
2022-10-23T10:53:07.335Z,99839.89
2022-10-23T10:55:44.624Z,99837.16
2022-10-23T10:58:41.561Z,99844.27
2022-10-23T11:01:35.359Z,99846.84
2022-10-23T11:04:40.518Z,99843.30
2022-10-23T11:07:19.055Z,99838.84
2022-10-23T11:09:55.575Z,99843.30
2022-10-23T11:12:29.944Z,99847.02
2022-10-23T11:15:04.253Z,99851.63
2022-10-23T11:17:45.674Z,99850.45
2022-10-23T11:20:53.826Z,99851.83
2022-10-23T11:24:00.259Z,99850.00
2022-10-23T11:27:05.197Z,99848.02
2022-10-23T11:30:12.044Z,99851.33
2022-10-23T11:33:31.616Z,99852.92
2022-10-23T11:36:24.125Z,99853.64
2022-10-23T11:39:04.107Z,99858.95
2022-10-23T11:41:38.812Z,99862.72
2022-10-23T11:44:42.871Z,99865.61
2022-10-23T11:47:40.729Z,99860.33
2022-10-23T11:50:20.497Z,99869.20
2022-10-23T11:53:13.885Z,99876.53
2022-10-23T11:56:08.792Z,99884.22
2022-10-23T11:58:55.574Z,99880.47
2022-10-23T12:01:46.963Z,99885.60
2022-10-23T12:04:27.203Z,99891.61
2022-10-23T12:07:04.294Z,99893.19
2022-10-23T12:09:45.072Z,99898.98
2022-10-23T12:12:35.368Z,99894.72
2022-10-23T12:15:15.519Z,99899.79
2022-10-23T12:17:51.247Z,99902.16
2022-10-23T12:20:42.465Z,99898.41
2022-10-23T12:23:50.411Z,99905.72
2022-10-23T14:35:05.027Z,100048.00
2022-10-23T14:37:40.885Z,100063.89
2022-10-23T14:40:17.861Z,100057.24
2022-10-23T14:42:55.465Z,100055.20
2022-10-23T14:45:31.092Z,100055.34
2022-10-23T14:48:09.489Z,100056.51
2022-10-23T14:50:50.375Z,100052.34
2022-10-23T14:53:27.934Z,100064.23
2022-10-23T14:56:09.828Z,100057.88
2022-10-23T14:58:44.057Z,100059.23
2022-10-23T15:01:19.564Z,100063.66
2022-10-23T15:03:56.742Z,100075.41
2022-10-23T15:06:31.934Z,100073.70
2022-10-23T15:09:06.340Z,100074.20
2022-10-23T15:11:41.275Z,100074.54
2022-10-23T15:14:20.709Z,100081.34
2022-10-23T15:16:54.420Z,100084.05
2022-10-23T15:19:31.632Z,100080.99
2022-10-23T15:22:07.052Z,100091.87
2022-10-23T15:24:44.876Z,100092.73
2022-10-23T15:27:18.798Z,100096.29
2022-10-23T15:29:55.268Z,100094.59
2022-10-23T15:32:28.819Z,100099.01
2022-10-23T15:35:02.703Z,100096.29
2022-10-23T15:37:36.698Z,100097.88
2022-10-23T15:40:12.096Z,100101.81
2022-10-23T15:42:45.022Z,100096.58
2022-10-23T15:45:18.703Z,100107.65
2022-10-23T15:47:51.714Z,100109.73
2022-10-23T15:50:25.787Z,100110.75
2022-10-23T15:52:58.756Z,100116.01
2022-10-23T15:55:33.280Z,100099.55
2022-10-23T15:58:06.284Z,100112.84
2022-10-23T16:00:42.438Z,100109.00
2022-10-23T16:03:17.101Z,100109.00
2022-10-23T16:05:50.793Z,100115.27
2022-10-23T16:08:26.320Z,100121.09
2022-10-23T16:11:01.309Z,100118.72
2022-10-23T16:13:34.738Z,100123.52
2022-10-23T16:16:10.051Z,100123.52
2022-10-23T16:18:44.767Z,100122.50
2022-10-23T16:21:26.903Z,100113.67
2022-10-23T16:24:01.965Z,100116.39
2022-10-23T16:26:37.355Z,100127.99
2022-10-23T16:29:11.209Z,100126.14
2022-10-23T16:31:50.295Z,100129.20
2022-10-23T16:34:27.386Z,100136.45
2022-10-23T16:37:00.957Z,100132.80
2022-10-23T16:39:46.779Z,100144.36
2022-10-23T16:42:38.399Z,100139.06
2022-10-23T16:45:14.701Z,100139.75
2022-10-23T16:47:49.561Z,100136.34
2022-10-23T16:50:27.267Z,100138.48
2022-10-23T16:53:06.897Z,100143.38
2022-10-23T16:55:43.901Z,100145.66
2022-10-23T16:58:18.857Z,100146.45
2022-10-23T17:01:04.452Z,100149.31
2022-10-23T17:04:02.594Z,100142.51
2022-10-23T17:06:41.842Z,100143.88
2022-10-23T17:09:18.261Z,100144.25
2022-10-23T17:11:55.262Z,100132.70
2022-10-23T17:14:34.709Z,100133.38
2022-10-23T17:17:21.187Z,100133.08
2022-10-23T17:20:07.581Z,100142.95
2022-10-23T17:22:42.088Z,100144.30
2022-10-23T17:25:18.053Z,100138.52
2022-10-23T17:27:58.575Z,100140.86
2022-10-23T17:30:37.025Z,100147.17
2022-10-23T17:33:13.840Z,100147.02
2022-10-23T17:35:51.214Z,100144.30
2022-10-23T17:38:27.317Z,100139.21
2022-10-23T17:41:07.969Z,100145.52
2022-10-23T17:43:46.878Z,100141.30
2022-10-23T17:46:21.809Z,100140.28
2022-10-23T17:49:00.202Z,100143.72
2022-10-23T17:51:42.344Z,100142.02
2022-10-23T17:54:19.978Z,100138.63
2022-10-23T17:56:55.000Z,100138.63
2022-10-23T17:59:32.727Z,100141.70
2022-10-23T18:02:09.591Z,100146.50
2022-10-23T18:04:56.830Z,100144.64
2022-10-23T18:07:31.361Z,100145.34
2022-10-23T18:10:08.439Z,100145.19
2022-10-23T18:12:43.227Z,100142.33
2022-10-23T18:15:16.987Z,100142.47
2022-10-23T18:17:56.437Z,100154.22
2022-10-23T18:20:40.617Z,100143.69
2022-10-23T18:23:16.162Z,100150.34
2022-10-23T18:25:51.519Z,100159.52
2022-10-23T18:28:26.356Z,100148.14
2022-10-23T18:31:11.210Z,100151.90
2022-10-23T18:36:41.361Z,100150.05
2022-10-23T18:39:22.948Z,100149.03
2022-10-23T18:42:11.781Z,100151.75
2022-10-23T18:44:48.923Z,100150.91
2022-10-23T18:47:26.899Z,100157.91
2022-10-23T18:50:05.335Z,100162.05
2022-10-23T18:52:45.320Z,100167.54
2022-10-23T18:55:20.946Z,100151.45
2022-10-23T18:57:59.254Z,100163.39
2022-10-23T19:00:37.904Z,100161.02
2022-10-23T19:03:17.307Z,100162.58
2022-10-23T19:05:57.735Z,100166.89
2022-10-23T19:08:31.511Z,100160.92
2022-10-23T19:11:06.848Z,100172.53
2022-10-23T19:13:40.849Z,100171.52
2022-10-23T19:16:32.297Z,100165.77
2022-10-23T19:19:15.417Z,100165.77
2022-10-23T19:22:03.091Z,100176.46
2022-10-23T19:24:59.874Z,100179.67
2022-10-23T19:27:34.013Z,100172.00
2022-10-23T19:30:09.469Z,100161.80
2022-10-23T19:32:44.574Z,100165.68
2022-10-23T19:35:18.865Z,100166.31
2022-10-23T19:37:53.803Z,100164.23
2022-10-23T19:40:28.659Z,100170.55
2022-10-23T19:43:03.058Z,100161.66
2022-10-23T19:45:38.521Z,100154.31
2022-10-23T19:48:11.454Z,100168.06
2022-10-23T19:50:47.993Z,100163.26
2022-10-23T19:53:20.686Z,100170.78
2022-10-23T19:56:07.516Z,100169.42
2022-10-23T19:58:42.168Z,100168.55
2022-10-23T20:01:18.678Z,100169.91
2022-10-23T20:03:52.005Z,100169.91
2022-10-23T20:06:49.913Z,100176.52
2022-10-23T20:09:22.536Z,100180.59
2022-10-23T20:11:57.050Z,100181.47
2022-10-23T20:14:29.627Z,100183.47
2022-10-23T20:17:03.195Z,100183.47
2022-10-23T20:19:37.263Z,100187.89
2022-10-23T20:22:11.089Z,100196.58
2022-10-23T20:24:43.630Z,100191.28
2022-10-23T20:27:17.233Z,100196.72
2022-10-23T20:29:51.071Z,100208.44
2022-10-23T20:32:23.656Z,100207.08
2022-10-23T20:34:56.425Z,100204.16
2022-10-23T20:37:28.908Z,100198.86
2022-10-23T20:40:01.592Z,100207.52
2022-10-23T20:42:34.219Z,100194.78
2022-10-23T20:45:07.514Z,100205.52
2022-10-23T20:47:41.632Z,100207.75
2022-10-23T20:50:14.733Z,100207.75
2022-10-23T20:52:48.751Z,100209.11
2022-10-23T20:55:21.871Z,100204.50
2022-10-23T20:57:55.919Z,100209.94
2022-10-23T21:00:28.801Z,100207.60
2022-10-23T21:03:05.779Z,100208.81
2022-10-23T21:05:38.767Z,100207.08
2022-10-23T21:08:11.883Z,100205.23
2022-10-23T21:10:48.425Z,100207.60
2022-10-23T21:13:21.666Z,100203.52
2022-10-23T21:15:55.035Z,100196.20
2022-10-23T21:18:44.829Z,100180.41
2022-10-23T21:21:03.442Z,100199.30
2022-10-23T21:23:38.650Z,100207.80
2022-10-23T21:26:11.488Z,100207.80
2022-10-23T21:28:55.613Z,100210.67
2022-10-23T21:31:23.806Z,100204.36
2022-10-23T21:33:56.759Z,100205.58
2022-10-23T21:36:34.305Z,100205.95
2022-10-23T21:39:06.929Z,100205.58
2022-10-23T21:41:40.406Z,100203.58
2022-10-23T21:44:14.141Z,100205.81
2022-10-23T21:46:47.890Z,100204.59
2022-10-23T21:49:20.983Z,100201.88
2022-10-23T21:51:55.328Z,100206.24
2022-10-23T21:54:28.848Z,100208.97
2022-10-23T21:57:03.265Z,100206.01
2022-10-23T21:59:36.271Z,100210.23
2022-10-23T22:02:09.667Z,100211.25
2022-10-23T22:04:43.612Z,100214.26
2022-10-23T22:07:18.687Z,100222.94
2022-10-23T22:09:51.591Z,100221.72
2022-10-23T22:12:24.788Z,100219.00
2022-10-23T22:14:58.479Z,100216.78
2022-10-23T22:17:31.582Z,100211.19
2022-10-23T22:20:07.244Z,100216.78
2022-10-23T22:22:39.320Z,100225.80
2022-10-23T22:25:12.958Z,100229.74
2022-10-23T22:27:46.573Z,100225.28
2022-10-23T22:30:20.253Z,100229.22
2022-10-23T22:32:53.150Z,100231.10
2022-10-23T22:35:26.499Z,100223.14
2022-10-23T22:37:59.038Z,100229.59
2022-10-23T22:40:31.956Z,100225.52
2022-10-23T22:43:04.660Z,100230.43
2022-10-23T22:45:37.603Z,100228.58
2022-10-23T22:48:10.126Z,100233.87
2022-10-23T22:50:43.967Z,100238.45
2022-10-23T22:53:17.077Z,100238.80
2022-10-23T22:55:49.652Z,100239.17
2022-10-23T22:58:23.202Z,100231.50
2022-10-23T23:01:03.550Z,100241.03
2022-10-23T23:03:38.193Z,100243.60
2022-10-23T23:06:10.738Z,100252.98
2022-10-23T23:08:43.528Z,100245.31
2022-10-23T23:11:18.531Z,100245.31
2022-10-23T23:13:51.395Z,100245.69
2022-10-23T23:16:30.490Z,100245.69
2022-10-23T23:19:04.564Z,100248.41
2022-10-23T23:21:38.401Z,100252.34
2022-10-23T23:24:12.768Z,100257.41
2022-10-23T23:26:46.188Z,100257.27
2022-10-23T23:29:19.521Z,100261.20
2022-10-23T23:31:53.877Z,100260.70
2022-10-23T23:34:26.472Z,100262.41
2022-10-23T23:37:00.890Z,100258.86
2022-10-23T23:39:33.636Z,100259.69
2022-10-23T23:42:06.406Z,100252.26
2022-10-23T23:44:50.234Z,100256.34
2022-10-23T23:47:15.565Z,100260.77
2022-10-23T23:49:48.509Z,100263.83
2022-10-23T23:52:21.826Z,100261.11
2022-10-23T23:54:56.205Z,100254.69
2022-10-23T23:57:28.949Z,100252.95
